sensor_id;sensor_type;location;lat;lon;timestamp;pressure;altitude;pressure_sealevel;temperature;humidity
34185;BME280;20454;48.100;11.776;2023-03-03T00:01:03;95480.81;;;0.35;100.00
34185;BME280;20454;48.100;11.776;2023-03-03T00:03:28;95478.34;;;0.33;100.00
34185;BME280;20454;48.100;11.776;2023-03-03T00:05:54;95484.59;;;0.29;100.00
34185;BME280;20454;48.100;11.776;2023-03-03T00:08:20;95479.13;;;0.29;100.00
34185;BME280;20454;48.100;11.776;2023-03-03T00:10:47;95481.31;;;0.32;100.00
34185;BME280;20454;48.100;11.776;2023-03-03T00:13:21;95479.13;;;0.29;100.00
34185;BME280;20454;48.100;11.776;2023-03-03T00:15:47;95477.47;;;0.28;100.00
34185;BME280;20454;48.100;11.776;2023-03-03T00:18:36;95477.19;;;0.29;100.00
34185;BME280;20454;48.100;11.776;2023-03-03T00:21:03;95481.84;;;0.29;100.00
34185;BME280;20454;48.100;11.776;2023-03-03T00:23:39;95479.63;;;0.26;100.00
34185;BME280;20454;48.100;11.776;2023-03-03T00:26:33;95476.31;;;0.24;100.00
34185;BME280;20454;48.100;11.776;2023-03-03T00:29:01;95474.94;;;0.21;100.00
34185;BME280;20454;48.100;11.776;2023-03-03T00:31:35;95476.56;;;0.22;100.00
34185;BME280;20454;48.100;11.776;2023-03-03T00:34:20;95470.56;;;0.20;100.00
34185;BME280;20454;48.100;11.776;2023-03-03T00:36:48;95468.34;;;0.17;100.00
34185;BME280;20454;48.100;11.776;2023-03-03T00:39:17;95471.34;;;0.16;100.00
34185;BME280;20454;48.100;11.776;2023-03-03T00:41:43;95473.50;;;0.14;100.00
34185;BME280;20454;48.100;11.776;2023-03-03T00:44:41;95471.84;;;0.13;100.00
34185;BME280;20454;48.100;11.776;2023-03-03T00:49:38;95480.88;;;0.13;100.00
34185;BME280;20454;48.100;11.776;2023-03-03T00:52:16;95477.84;;;0.10;100.00
34185;BME280;20454;48.100;11.776;2023-03-03T00:54:42;95479.47;;;0.11;100.00
34185;BME280;20454;48.100;11.776;2023-03-03T00:57:08;95476.75;;;0.11;100.00
34185;BME280;20454;48.100;11.776;2023-03-03T00:59:33;95480.34;;;0.16;100.00
34185;BME280;20454;48.100;11.776;2023-03-03T01:01:59;95475.41;;;0.13;100.00
34185;BME280;20454;48.100;11.776;2023-03-03T01:04:25;95489.63;;;0.15;100.00
34185;BME280;20454;48.100;11.776;2023-03-03T01:06:50;95480.88;;;0.13;100.00
34185;BME280;20454;48.100;11.776;2023-03-03T01:09:16;95490.22;;;0.17;100.00
34185;BME280;20454;48.100;11.776;2023-03-03T01:11:42;95483.06;;;0.16;100.00
34185;BME280;20454;48.100;11.776;2023-03-03T01:14:07;95492.44;;;0.20;100.00
34185;BME280;20454;48.100;11.776;2023-03-03T01:16:33;95487.22;;;0.19;100.00
34185;BME280;20454;48.100;11.776;2023-03-03T01:18:59;95479.53;;;0.16;100.00
34185;BME280;20454;48.100;11.776;2023-03-03T01:21:24;95474.56;;;0.13;100.00
34185;BME280;20454;48.100;11.776;2023-03-03T01:23:50;95487.75;;;0.16;100.00
34185;BME280;20454;48.100;11.776;2023-03-03T01:26:16;95478.97;;;0.14;100.00
34185;BME280;20454;48.100;11.776;2023-03-03T01:28:41;95475.16;;;0.15;100.00
34185;BME280;20454;48.100;11.776;2023-03-03T01:31:07;95485.00;;;0.16;100.00
34185;BME280;20454;48.100;11.776;2023-03-03T01:33:34;95478.66;;;0.10;100.00
34185;BME280;20454;48.100;11.776;2023-03-03T01:36:00;95468.53;;;0.11;100.00
34185;BME280;20454;48.100;11.776;2023-03-03T01:38:25;95485.50;;;0.13;100.00
34185;BME280;20454;48.100;11.776;2023-03-03T01:40:55;95472.34;;;0.10;100.00
34185;BME280;20454;48.100;11.776;2023-03-03T01:43:21;95470.47;;;0.10;100.00
34185;BME280;20454;48.100;11.776;2023-03-03T01:48:17;95464.16;;;0.10;100.00
34185;BME280;20454;48.100;11.776;2023-03-03T01:50:47;95463.06;;;0.11;100.00
34185;BME280;20454;48.100;11.776;2023-03-03T01:53:59;95468.22;;;0.07;100.00
34185;BME280;20454;48.100;11.776;2023-03-03T01:56:05;95460.28;;;0.06;100.00
34185;BME280;20454;48.100;11.776;2023-03-03T01:58:34;95467.13;;;0.03;100.00
34185;BME280;20454;48.100;11.776;2023-03-03T02:01:04;95461.91;;;0.02;100.00
34185;BME280;20454;48.100;11.776;2023-03-03T02:03:31;95465.72;;;0.01;100.00
34185;BME280;20454;48.100;11.776;2023-03-03T02:06:01;95461.28;;;-0.05;100.00
34185;BME280;20454;48.100;11.776;2023-03-03T02:08:35;95462.69;;;-0.03;100.00
34185;BME280;20454;48.100;11.776;2023-03-03T02:11:02;95461.22;;;-0.10;100.00
34185;BME280;20454;48.100;11.776;2023-03-03T02:13:28;95448.31;;;-0.14;100.00
34185;BME280;20454;48.100;11.776;2023-03-03T02:15:54;95468.84;;;-0.12;100.00
34185;BME280;20454;48.100;11.776;2023-03-03T02:18:21;95471.31;;;-0.11;100.00
34185;BME280;20454;48.100;11.776;2023-03-03T02:23:33;95467.63;;;-0.21;100.00
34185;BME280;20454;48.100;11.776;2023-03-03T02:28:33;95468.22;;;-0.19;100.00
34185;BME280;20454;48.100;11.776;2023-03-03T02:30:59;95464.34;;;-0.23;100.00
34185;BME280;20454;48.100;11.776;2023-03-03T02:33:26;95465.97;;;-0.27;100.00
34185;BME280;20454;48.100;11.776;2023-03-03T02:35:52;95467.00;;;-0.28;100.00
34185;BME280;20454;48.100;11.776;2023-03-03T02:44:19;95466.13;;;-0.33;100.00
34185;BME280;20454;48.100;11.776;2023-03-03T02:46:47;95472.69;;;-0.34;100.00
34185;BME280;20454;48.100;11.776;2023-03-03T02:49:15;95473.25;;;-0.32;100.00
34185;BME280;20454;48.100;11.776;2023-03-03T02:51:42;95455.03;;;-0.48;100.00
34185;BME280;20454;48.100;11.776;2023-03-03T02:54:09;95465.81;;;-0.37;100.00
34185;BME280;20454;48.100;11.776;2023-03-03T02:56:35;95470.72;;;-0.39;100.00
34185;BME280;20454;48.100;11.776;2023-03-03T02:59:00;95458.66;;;-0.43;100.00
34185;BME280;20454;48.100;11.776;2023-03-03T05:01:44;95462.53;;;0.40;100.00
34185;BME280;20454;48.100;11.776;2023-03-03T05:04:11;95468.88;;;0.46;100.00
34185;BME280;20454;48.100;11.776;2023-03-03T05:06:36;95466.69;;;0.48;100.00
34185;BME280;20454;48.100;11.776;2023-03-03T05:09:02;95468.91;;;0.51;100.00
34185;BME280;20454;48.100;11.776;2023-03-03T05:11:28;95467.03;;;0.56;100.00
34185;BME280;20454;48.100;11.776;2023-03-03T05:13:54;95466.22;;;0.56;100.00
34185;BME280;20454;48.100;11.776;2023-03-03T05:16:19;95462.34;;;0.52;100.00
34185;BME280;20454;48.100;11.776;2023-03-03T05:18:45;95472.56;;;0.61;100.00
34185;BME280;20454;48.100;11.776;2023-03-03T05:21:11;95480.53;;;0.63;100.00
34185;BME280;20454;48.100;11.776;2023-03-03T05:23:37;95473.38;;;0.62;100.00
34185;BME280;20454;48.100;11.776;2023-03-03T05:26:03;95464.91;;;0.63;100.00
34185;BME280;20454;48.100;11.776;2023-03-03T05:28:28;95463.56;;;0.66;100.00
34185;BME280;20454;48.100;11.776;2023-03-03T05:30:54;95459.19;;;0.65;100.00
34185;BME280;20454;48.100;11.776;2023-03-03T05:33:20;95457.00;;;0.67;100.00
34185;BME280;20454;48.100;11.776;2023-03-03T05:35:46;95470.97;;;0.70;100.00
34185;BME280;20454;48.100;11.776;2023-03-03T05:38:11;95477.84;;;0.73;100.00
34185;BME280;20454;48.100;11.776;2023-03-03T05:40:37;95474.03;;;0.74;100.00
34185;BME280;20454;48.100;11.776;2023-03-03T06:47:50;95526.25;;;1.40;100.00
34185;BME280;20454;48.100;11.776;2023-03-03T06:50:17;95529.28;;;1.44;100.00
34185;BME280;20454;48.100;11.776;2023-03-03T06:52:44;95526.03;;;1.47;100.00
34185;BME280;20454;48.100;11.776;2023-03-03T06:55:12;95525.47;;;1.50;100.00
34185;BME280;20454;48.100;11.776;2023-03-03T06:57:41;95531.25;;;1.53;100.00
34185;BME280;20454;48.100;11.776;2023-03-03T07:00:14;95540.88;;;1.56;100.00
34185;BME280;20454;48.100;11.776;2023-03-03T07:02:40;95533.78;;;1.60;100.00
34185;BME280;20454;48.100;11.776;2023-03-03T07:05:12;95538.72;;;1.63;100.00
34185;BME280;20454;48.100;11.776;2023-03-03T07:07:38;95544.19;;;1.63;100.00
34185;BME280;20454;48.100;11.776;2023-03-03T07:10:19;95544.50;;;1.66;100.00
34185;BME280;20454;48.100;11.776;2023-03-03T07:12:46;95539.31;;;1.70;100.00
34185;BME280;20454;48.100;11.776;2023-03-03T07:15:15;95528.31;;;1.65;100.00
34185;BME280;20454;48.100;11.776;2023-03-03T07:17:43;95542.88;;;1.75;100.00
34185;BME280;20454;48.100;11.776;2023-03-03T07:20:22;95534.66;;;1.70;100.00
34185;BME280;20454;48.100;11.776;2023-03-03T07:22:48;95547.84;;;1.78;100.00
34185;BME280;20454;48.100;11.776;2023-03-03T07:25:19;95548.66;;;1.79;100.00
34185;BME280;20454;48.100;11.776;2023-03-03T07:27:46;95555.81;;;1.85;100.00
34185;BME280;20454;48.100;11.776;2023-03-03T07:32:44;95561.63;;;1.93;100.00
34185;BME280;20454;48.100;11.776;2023-03-03T07:35:36;95569.06;;;1.98;100.00
34185;BME280;20454;48.100;11.776;2023-03-03T07:41:02;95571.84;;;2.08;100.00
34185;BME280;20454;48.100;11.776;2023-03-03T07:43:33;95576.25;;;2.14;100.00
34185;BME280;20454;48.100;11.776;2023-03-03T07:46:16;95572.97;;;2.17;100.00
34185;BME280;20454;48.100;11.776;2023-03-03T07:48:44;95584.81;;;2.27;100.00
34185;BME280;20454;48.100;11.776;2023-03-03T07:51:22;95585.13;;;2.36;100.00
34185;BME280;20454;48.100;11.776;2023-03-03T07:53:50;95591.19;;;2.43;100.00
34185;BME280;20454;48.100;11.776;2023-03-03T07:58:49;95588.78;;;2.61;100.00
34185;BME280;20454;48.100;11.776;2023-03-03T08:03:51;95594.56;;;2.70;100.00
34185;BME280;20454;48.100;11.776;2023-03-03T08:14:35;95586.06;;;2.86;100.00
34185;BME280;20454;48.100;11.776;2023-03-03T08:17:01;95584.72;;;2.99;100.00
34185;BME280;20454;48.100;11.776;2023-03-03T08:19:31;95580.31;;;3.03;100.00
34185;BME280;20454;48.100;11.776;2023-03-03T08:22:05;95579.50;;;3.02;99.37
34185;BME280;20454;48.100;11.776;2023-03-03T08:24:35;95577.31;;;3.04;99.56
34185;BME280;20454;48.100;11.776;2023-03-03T08:27:00;95581.16;;;3.18;99.65
34185;BME280;20454;48.100;11.776;2023-03-03T08:29:26;95583.91;;;3.28;100.00
34185;BME280;20454;48.100;11.776;2023-03-03T08:31:52;95580.06;;;3.34;98.85
34185;BME280;20454;48.100;11.776;2023-03-03T08:34:17;95585.84;;;3.43;98.16
34185;BME280;20454;48.100;11.776;2023-03-03T08:36:43;95575.91;;;3.52;97.99
34185;BME280;20454;48.100;11.776;2023-03-03T08:39:09;95572.34;;;3.61;97.58
34185;BME280;20454;48.100;11.776;2023-03-03T08:41:34;95592.13;;;3.73;96.15
34185;BME280;20454;48.100;11.776;2023-03-03T08:44:00;95584.94;;;3.82;96.08
34185;BME280;20454;48.100;11.776;2023-03-03T08:46:26;95589.88;;;3.95;96.03
34185;BME280;20454;48.100;11.776;2023-03-03T08:48:52;95591.25;;;4.03;94.69
34185;BME280;20454;48.100;11.776;2023-03-03T08:51:18;95584.38;;;4.05;94.37
34185;BME280;20454;48.100;11.776;2023-03-03T08:53:44;95593.69;;;4.09;92.85
34185;BME280;20454;48.100;11.776;2023-03-03T08:56:09;95593.97;;;4.13;92.52
34185;BME280;20454;48.100;11.776;2023-03-03T08:58:35;95591.19;;;4.13;92.63
34185;BME280;20454;48.100;11.776;2023-03-03T09:01:01;95600.78;;;4.25;92.56
34185;BME280;20454;48.100;11.776;2023-03-03T09:03:27;95600.25;;;4.33;91.15
34185;BME280;20454;48.100;11.776;2023-03-03T09:05:52;95596.09;;;4.36;90.74
34185;BME280;20454;48.100;11.776;2023-03-03T09:08:18;95603.22;;;4.42;90.37
34185;BME280;20454;48.100;11.776;2023-03-03T09:10:44;95608.16;;;4.50;90.68
34185;BME280;20454;48.100;11.776;2023-03-03T09:13:14;95598.47;;;4.57;89.86
34185;BME280;20454;48.100;11.776;2023-03-03T09:15:40;95602.56;;;4.64;89.37
34185;BME280;20454;48.100;11.776;2023-03-03T09:20:43;95592.41;;;4.60;86.92
34185;BME280;20454;48.100;11.776;2023-03-03T09:25:54;95603.31;;;4.80;87.66
34185;BME280;20454;48.100;11.776;2023-03-03T09:28:26;95594.22;;;4.79;87.68
34185;BME280;20454;48.100;11.776;2023-03-03T09:30:54;95593.34;;;4.89;87.58
34185;BME280;20454;48.100;11.776;2023-03-03T09:33:41;95595.28;;;4.88;86.51
34185;BME280;20454;48.100;11.776;2023-03-03T09:36:27;95591.66;;;4.93;87.21
34185;BME280;20454;48.100;11.776;2023-03-03T09:38:54;95597.66;;;5.05;86.95
34185;BME280;20454;48.100;11.776;2023-03-03T09:55:35;95628.06;;;5.72;83.31
34185;BME280;20454;48.100;11.776;2023-03-03T10:15:52;95633.97;;;6.22;81.60
34185;BME280;20454;48.100;11.776;2023-03-03T10:18:41;95639.97;;;6.29;79.21
34185;BME280;20454;48.100;11.776;2023-03-03T10:26:44;95636.28;;;6.10;79.30
34185;BME280;20454;48.100;11.776;2023-03-03T10:38:01;95644.59;;;6.05;81.25
34185;BME280;20454;48.100;11.776;2023-03-03T10:40:52;95628.56;;;6.07;80.07
34185;BME280;20454;48.100;11.776;2023-03-03T10:55:19;95633.97;;;6.46;78.46
34185;BME280;20454;48.100;11.776;2023-03-03T11:00:48;95622.13;;;6.87;77.55
34185;BME280;20454;48.100;11.776;2023-03-03T11:05:54;95630.75;;;7.04;75.46
34185;BME280;20454;48.100;11.776;2023-03-03T11:11:08;95638.63;;;7.16;74.59
34185;BME280;20454;48.100;11.776;2023-03-03T11:14:02;95626.22;;;7.32;74.84
34185;BME280;20454;48.100;11.776;2023-03-03T11:16:36;95643.28;;;7.39;73.25
34185;BME280;20454;48.100;11.776;2023-03-03T11:19:26;95647.84;;;7.30;72.38
34185;BME280;20454;48.100;11.776;2023-03-03T11:22:10;95648.19;;;7.23;72.99
34185;BME280;20454;48.100;11.776;2023-03-03T11:25:02;95627.19;;;7.22;73.53
34185;BME280;20454;48.100;11.776;2023-03-03T11:33:22;95636.91;;;7.75;71.90
34185;BME280;20454;48.100;11.776;2023-03-03T11:39:15;95638.69;;;7.85;70.20
34185;BME280;20454;48.100;11.776;2023-03-03T11:43:56;95627.22;;;7.91;70.37
34185;BME280;20454;48.100;11.776;2023-03-03T11:46:31;95622.47;;;8.10;71.50
34185;BME280;20454;48.100;11.776;2023-03-03T11:49:11;95613.91;;;8.25;70.82
34185;BME280;20454;48.100;11.776;2023-03-03T11:54:53;95604.03;;;8.33;70.28
34185;BME280;20454;48.100;11.776;2023-03-03T11:57:55;95594.63;;;8.47;69.16
34185;BME280;20454;48.100;11.776;2023-03-03T12:11:46;95595.88;;;8.82;65.86
34185;BME280;20454;48.100;11.776;2023-03-03T12:16:57;95588.56;;;8.99;66.12
34185;BME280;20454;48.100;11.776;2023-03-03T12:19:46;95588.69;;;8.94;66.32
34185;BME280;20454;48.100;11.776;2023-03-03T12:22:23;95590.94;;;8.92;66.54
34185;BME280;20454;48.100;11.776;2023-03-03T12:30:25;95591.16;;;9.45;63.94
34185;BME280;20454;48.100;11.776;2023-03-03T12:33:11;95597.28;;;9.55;63.18
34185;BME280;20454;48.100;11.776;2023-03-03T12:35:50;95577.78;;;9.68;61.79
34185;BME280;20454;48.100;11.776;2023-03-03T14:22:44;95520.41;;;12.30;49.78
34185;BME280;20454;48.100;11.776;2023-03-03T14:25:15;95517.69;;;12.05;51.68
34185;BME280;20454;48.100;11.776;2023-03-03T14:28:03;95506.75;;;11.83;52.69
34185;BME280;20454;48.100;11.776;2023-03-03T14:30:39;95508.03;;;11.60;52.50
34185;BME280;20454;48.100;11.776;2023-03-03T14:35:41;95518.09;;;10.88;54.20
34185;BME280;20454;48.100;11.776;2023-03-03T14:38:22;95516.09;;;10.71;55.23
34185;BME280;20454;48.100;11.776;2023-03-03T14:40:49;95516.84;;;10.55;55.59
34185;BME280;20454;48.100;11.776;2023-03-03T14:43:39;95517.88;;;10.28;56.59
34185;BME280;20454;48.100;11.776;2023-03-03T14:48:50;95514.38;;;10.14;59.35
34185;BME280;20454;48.100;11.776;2023-03-03T14:54:26;95521.75;;;10.19;58.80
34185;BME280;20454;48.100;11.776;2023-03-03T14:57:10;95517.00;;;10.11;57.87
34185;BME280;20454;48.100;11.776;2023-03-03T14:59:36;95520.56;;;10.11;58.61
34185;BME280;20454;48.100;11.776;2023-03-03T15:04:40;95510.31;;;9.98;58.54
34185;BME280;20454;48.100;11.776;2023-03-03T15:07:32;95519.50;;;9.99;59.58
34185;BME280;20454;48.100;11.776;2023-03-03T15:09:59;95512.78;;;10.00;59.58
34185;BME280;20454;48.100;11.776;2023-03-03T15:17:37;95518.63;;;9.90;58.07
34185;BME280;20454;48.100;11.776;2023-03-03T15:26:00;95523.38;;;9.67;60.04
34185;BME280;20454;48.100;11.776;2023-03-03T15:34:23;95538.41;;;9.45;60.57
34185;BME280;20454;48.100;11.776;2023-03-03T15:50:00;95545.53;;;8.88;63.11
34185;BME280;20454;48.100;11.776;2023-03-03T15:55:40;95535.91;;;8.72;63.41
34185;BME280;20454;48.100;11.776;2023-03-03T16:00:52;95543.59;;;8.62;65.04
34185;BME280;20454;48.100;11.776;2023-03-03T16:03:34;95540.09;;;8.56;65.55
34185;BME280;20454;48.100;11.776;2023-03-03T16:22:40;95542.16;;;8.24;66.53
34185;BME280;20454;48.100;11.776;2023-03-03T16:28:00;95562.00;;;8.12;66.52
34185;BME280;20454;48.100;11.776;2023-03-03T16:30:49;95551.94;;;8.03;67.72
34185;BME280;20454;48.100;11.776;2023-03-03T16:38:35;95550.63;;;7.68;67.86
34185;BME280;20454;48.100;11.776;2023-03-03T16:41:04;95567.41;;;7.58;68.31
34185;BME280;20454;48.100;11.776;2023-03-03T16:49:13;95559.88;;;7.27;70.56
34185;BME280;20454;48.100;11.776;2023-03-03T16:54:31;95564.91;;;7.06;70.96
34185;BME280;20454;48.100;11.776;2023-03-03T16:57:15;95570.22;;;7.03;71.56
34185;BME280;20454;48.100;11.776;2023-03-03T17:16:13;95599.81;;;6.60;74.33
34185;BME280;20454;48.100;11.776;2023-03-03T17:18:55;95599.94;;;6.50;74.63
34185;BME280;20454;48.100;11.776;2023-03-03T17:35:20;95617.91;;;5.96;78.60
34185;BME280;20454;48.100;11.776;2023-03-03T17:37:53;95619.94;;;5.85;79.13
34185;BME280;20454;48.100;11.776;2023-03-03T17:43:15;95626.75;;;5.59;80.31
34185;BME280;20454;48.100;11.776;2023-03-03T17:45:45;95641.41;;;5.55;80.67
34185;BME280;20454;48.100;11.776;2023-03-03T17:48:30;95632.41;;;5.44;81.40
34185;BME280;20454;48.100;11.776;2023-03-03T17:51:38;95643.25;;;5.36;81.61
34185;BME280;20454;48.100;11.776;2023-03-03T17:54:29;95645.78;;;5.22;82.12
34185;BME280;20454;48.100;11.776;2023-03-03T18:03:11;95653.13;;;4.93;84.24
34185;BME280;20454;48.100;11.776;2023-03-03T18:08:48;95659.84;;;4.77;85.52
34185;BME280;20454;48.100;11.776;2023-03-03T18:11:52;95659.59;;;4.69;86.43
34185;BME280;20454;48.100;11.776;2023-03-03T18:14:42;95657.41;;;4.61;86.76
34185;BME280;20454;48.100;11.776;2023-03-03T18:17:20;95663.78;;;4.57;87.66
34185;BME280;20454;48.100;11.776;2023-03-03T18:22:42;95645.09;;;4.39;90.35
34185;BME280;20454;48.100;11.776;2023-03-03T18:25:11;95675.91;;;4.46;90.31
34185;BME280;20454;48.100;11.776;2023-03-03T18:27:39;95663.53;;;4.38;90.49
34185;BME280;20454;48.100;11.776;2023-03-03T18:30:19;95671.81;;;4.33;90.61
34185;BME280;20454;48.100;11.776;2023-03-03T19:57:16;95718.81;;;2.40;98.80
34185;BME280;20454;48.100;11.776;2023-03-03T19:59:56;95728.41;;;2.38;99.44
34185;BME280;20454;48.100;11.776;2023-03-03T20:10:45;95719.00;;;2.24;99.66
34185;BME280;20454;48.100;11.776;2023-03-03T20:18:24;95731.56;;;2.15;100.00
34185;BME280;20454;48.100;11.776;2023-03-03T20:21:12;95736.47;;;2.13;100.00
34185;BME280;20454;48.100;11.776;2023-03-03T20:26:33;95718.81;;;1.99;100.00
34185;BME280;20454;48.100;11.776;2023-03-03T20:32:16;95734.78;;;2.07;100.00
34185;BME280;20454;48.100;11.776;2023-03-03T20:37:24;95740.81;;;2.04;100.00
34185;BME280;20454;48.100;11.776;2023-03-03T20:42:51;95734.47;;;1.98;100.00
34185;BME280;20454;48.100;11.776;2023-03-03T20:45:30;95736.63;;;1.96;100.00
34185;BME280;20454;48.100;11.776;2023-03-03T20:48:01;95746.53;;;1.97;100.00
34185;BME280;20454;48.100;11.776;2023-03-03T20:56:16;95734.97;;;1.90;100.00
34185;BME280;20454;48.100;11.776;2023-03-03T21:01:58;95745.09;;;1.90;100.00
34185;BME280;20454;48.100;11.776;2023-03-03T21:04:28;95741.19;;;1.81;100.00
34185;BME280;20454;48.100;11.776;2023-03-03T21:06:58;95736.50;;;1.81;100.00
34185;BME280;20454;48.100;11.776;2023-03-03T21:09:36;95745.84;;;1.80;100.00
34185;BME280;20454;48.100;11.776;2023-03-03T21:12:28;95749.38;;;1.76;100.00
34185;BME280;20454;48.100;11.776;2023-03-03T21:15:02;95749.63;;;1.74;100.00
34185;BME280;20454;48.100;11.776;2023-03-03T21:17:29;95744.06;;;1.64;100.00
34185;BME280;20454;48.100;11.776;2023-03-03T21:22:45;95740.47;;;1.64;100.00
34185;BME280;20454;48.100;11.776;2023-03-03T21:28:24;95748.66;;;1.59;100.00
34185;BME280;20454;48.100;11.776;2023-03-03T21:31:11;95730.53;;;1.53;100.00
34185;BME280;20454;48.100;11.776;2023-03-03T21:36:09;95742.25;;;1.48;100.00
34185;BME280;20454;48.100;11.776;2023-03-03T21:38:36;95748.56;;;1.49;100.00
34185;BME280;20454;48.100;11.776;2023-03-03T21:41:04;95753.22;;;1.48;100.00
34185;BME280;20454;48.100;11.776;2023-03-03T21:43:34;95746.06;;;1.42;100.00
34185;BME280;20454;48.100;11.776;2023-03-03T21:46:00;95746.94;;;1.48;100.00
34185;BME280;20454;48.100;11.776;2023-03-03T21:48:26;95742.47;;;1.42;100.00
34185;BME280;20454;48.100;11.776;2023-03-03T21:50:52;95752.97;;;1.50;100.00
34185;BME280;20454;48.100;11.776;2023-03-03T21:53:17;95747.72;;;1.43;100.00
34185;BME280;20454;48.100;11.776;2023-03-03T21:55:45;95744.19;;;1.48;100.00
34185;BME280;20454;48.100;11.776;2023-03-03T21:58:17;95758.69;;;1.48;100.00
34185;BME280;20454;48.100;11.776;2023-03-03T22:00:43;95755.94;;;1.43;100.00
34185;BME280;20454;48.100;11.776;2023-03-03T22:03:10;95754.28;;;1.42;100.00
34185;BME280;20454;48.100;11.776;2023-03-03T22:05:36;95752.91;;;1.45;100.00
34185;BME280;20454;48.100;11.776;2023-03-03T22:08:01;95747.41;;;1.40;100.00
34185;BME280;20454;48.100;11.776;2023-03-03T22:10:27;95738.03;;;1.36;100.00
34185;BME280;20454;48.100;11.776;2023-03-03T22:12:53;95746.81;;;1.38;100.00
34185;BME280;20454;48.100;11.776;2023-03-03T22:15:18;95728.31;;;1.23;100.00
34185;BME280;20454;48.100;11.776;2023-03-03T22:17:44;95748.44;;;1.34;100.00
34185;BME280;20454;48.100;11.776;2023-03-03T22:20:11;95746.81;;;1.38;100.00
34185;BME280;20454;48.100;11.776;2023-03-03T22:22:39;95754.22;;;1.37;100.00
34185;BME280;20454;48.100;11.776;2023-03-03T22:25:05;95750.03;;;1.30;100.00
34185;BME280;20454;48.100;11.776;2023-03-03T22:27:30;95759.41;;;1.34;100.00
34185;BME280;20454;48.100;11.776;2023-03-03T22:29:56;95751.13;;;1.29;100.00
34185;BME280;20454;48.100;11.776;2023-03-03T22:32:22;95758.84;;;1.32;100.00
34185;BME280;20454;48.100;11.776;2023-03-03T22:34:47;95758.25;;;1.30;100.00
34185;BME280;20454;48.100;11.776;2023-03-03T22:37:13;95755.78;;;1.28;100.00
34185;BME280;20454;48.100;11.776;2023-03-03T22:39:39;95751.66;;;1.26;100.00
34185;BME280;20454;48.100;11.776;2023-03-03T22:42:04;95758.78;;;1.27;100.00
34185;BME280;20454;48.100;11.776;2023-03-03T22:44:30;95762.59;;;1.26;100.00
34185;BME280;20454;48.100;11.776;2023-03-03T22:46:55;95753.22;;;1.22;100.00
34185;BME280;20454;48.100;11.776;2023-03-03T22:49:21;95757.06;;;1.21;100.00
34185;BME280;20454;48.100;11.776;2023-03-03T22:51:47;95748.28;;;1.19;100.00
34185;BME280;20454;48.100;11.776;2023-03-03T22:54:12;95758.97;;;1.20;100.00
34185;BME280;20454;48.100;11.776;2023-03-03T22:56:38;95771.31;;;1.23;100.00
34185;BME280;20454;48.100;11.776;2023-03-03T22:59:03;95770.50;;;1.22;100.00
34185;BME280;20454;48.100;11.776;2023-03-03T23:01:29;95758.97;;;1.20;100.00
34185;BME280;20454;48.100;11.776;2023-03-03T23:03:55;95770.44;;;1.17;100.00
34185;BME280;20454;48.100;11.776;2023-03-03T23:06:20;95766.53;;;1.08;100.00
34185;BME280;20454;48.100;11.776;2023-03-03T23:08:46;95762.88;;;1.03;100.00
34185;BME280;20454;48.100;11.776;2023-03-03T23:11:12;95749.09;;;0.93;100.00
34185;BME280;20454;48.100;11.776;2023-03-03T23:13:37;95729.22;;;0.81;100.00
34185;BME280;20454;48.100;11.776;2023-03-03T23:16:03;95763.88;;;0.92;100.00
34185;BME280;20454;48.100;11.776;2023-03-03T23:18:29;95766.34;;;0.93;100.00
34185;BME280;20454;48.100;11.776;2023-03-03T23:20:55;95765.72;;;0.86;100.00
34185;BME280;20454;48.100;11.776;2023-03-03T23:23:21;95755.00;;;0.85;100.00
34185;BME280;20454;48.100;11.776;2023-03-03T23:25:47;95750.56;;;0.79;100.00
34185;BME280;20454;48.100;11.776;2023-03-03T23:28:13;95752.09;;;0.70;100.00
34185;BME280;20454;48.100;11.776;2023-03-03T23:30:43;95747.19;;;0.72;100.00
34185;BME280;20454;48.100;11.776;2023-03-03T23:33:09;95759.53;;;0.74;100.00
34185;BME280;20454;48.100;11.776;2023-03-03T23:35:34;95748.53;;;0.69;100.00
34185;BME280;20454;48.100;11.776;2023-03-03T23:38:01;95751.56;;;0.73;100.00
34185;BME280;20454;48.100;11.776;2023-03-03T23:40:26;95748.28;;;0.71;100.00
34185;BME280;20454;48.100;11.776;2023-03-03T23:42:52;95745.22;;;0.67;100.00
34185;BME280;20454;48.100;11.776;2023-03-03T23:45:17;95753.22;;;0.74;100.00
34185;BME280;20454;48.100;11.776;2023-03-03T23:47:43;95752.09;;;0.70;100.00
34185;BME280;20454;48.100;11.776;2023-03-03T23:50:10;95747.75;;;0.74;100.00
34185;BME280;20454;48.100;11.776;2023-03-03T23:52:36;95745.00;;;0.74;100.00
34185;BME280;20454;48.100;11.776;2023-03-03T23:55:02;95744.00;;;0.80;100.00
34185;BME280;20454;48.100;11.776;2023-03-03T23:57:28;95756.41;;;0.87;100.00
34185;BME280;20454;48.100;11.776;2023-03-03T23:59:54;95760.88;;;0.93;100.00
